Ava, Ohio
Current Conditions -  °F | °C
As of 3:53 PM on Thursday 27 Nov 2014 (Local Time) from KZZV Reporting Station
Overcast Overcast  
Wind Chill: -5°   Ceiling: 3800
Heat Index: -1°   Visibility: 10mi
Dew Point: -6°   Wind: 9mph
Humidity: 67%   Direction: 280°W
Pressure: 30.2"   Gusts: NA
Location:  39.83°N, 81.57°W
Report Text: KZZV 272053Z AUTO 28008KT 10SM FEW026 OVC038 M01/M06 A3020 RMK AO2 SNB10E20 SLP236 P0000 60000 T10061061 53016
Loading
Personal Weather Stations






























Interactive Weather Map New forecast layout! Learn more

10-Day Weather Forecast

Advertisements
Track Severe Weather on mobile